createdAt,value
2019-05-01T00:01:42.816Z,42.57
2019-05-01T00:04:32.007Z,52.03
2019-05-01T00:07:04.606Z,45.67
2019-05-01T00:09:34.947Z,48.83
2019-05-01T00:12:05.367Z,49.83
2019-05-01T00:14:37.328Z,48.97
2019-05-01T00:17:07.813Z,39.73
2019-05-01T00:19:38.211Z,42.93
2019-05-01T00:22:08.626Z,48.77
2019-05-01T00:24:39.047Z,47.30
2019-05-01T00:27:09.468Z,46.80
2019-05-01T00:29:39.875Z,46.23
2019-05-01T00:32:10.188Z,48.53
2019-05-01T00:34:41.879Z,46.13
2019-05-01T00:37:12.226Z,44.40
2019-05-01T00:39:42.580Z,47.10
2019-05-01T00:42:12.902Z,46.83
2019-05-01T00:44:43.250Z,48.47
2019-05-01T00:47:13.572Z,43.33
2019-05-01T00:49:43.920Z,44.00
2019-05-01T00:52:14.243Z,45.73
2019-05-01T00:54:47.471Z,45.97
2019-05-01T00:57:27.309Z,48.23
2019-05-01T01:00:16.618Z,48.63
2019-05-01T01:02:50.207Z,46.03
2019-05-01T01:05:20.542Z,58.07
2019-05-01T01:07:50.857Z,49.50
2019-05-01T01:10:21.202Z,55.00
2019-05-01T01:12:51.507Z,51.33
2019-05-01T01:15:21.854Z,46.37
2019-05-01T01:17:52.167Z,51.40
2019-05-01T01:20:22.494Z,49.23
2019-05-01T01:22:52.841Z,48.43
2019-05-01T01:25:23.263Z,53.40
2019-05-01T01:27:53.566Z,50.23
2019-05-01T01:30:23.915Z,50.10
2019-05-01T01:32:54.232Z,54.23
2019-05-01T01:35:24.573Z,59.73
2019-05-01T01:37:54.880Z,49.60
2019-05-01T01:40:25.289Z,49.77
2019-05-01T01:42:58.266Z,53.33
2019-05-01T01:45:36.807Z,58.83
2019-05-01T01:48:15.286Z,56.00
2019-05-01T01:50:46.616Z,63.20
2019-05-01T01:53:20.221Z,64.30
2019-05-01T01:55:50.860Z,60.97
2019-05-01T01:58:22.527Z,50.10
2019-05-01T02:01:14.825Z,46.87
2019-05-01T02:03:48.977Z,46.97
2019-05-01T02:06:19.597Z,46.13
2019-05-01T02:08:56.188Z,44.30
2019-05-01T02:11:21.878Z,40.73
2019-05-01T02:13:56.247Z,46.10
2019-05-01T02:16:26.694Z,42.67
2019-05-01T02:18:56.986Z,43.53
2019-05-01T02:21:27.324Z,41.90
2019-05-01T02:23:59.246Z,39.07
2019-05-01T02:26:32.987Z,43.23
2019-05-01T02:29:10.578Z,42.93
2019-05-01T02:31:44.886Z,54.57
2019-05-01T02:34:18.107Z,58.97
2019-05-01T02:36:50.550Z,57.73
2019-05-01T02:39:22.036Z,43.83
2019-05-01T02:41:55.372Z,43.07
2019-05-01T02:44:29.191Z,48.90
2019-05-01T02:47:02.111Z,46.50
2019-05-01T02:49:47.213Z,38.77
2019-05-01T02:52:20.620Z,48.67
2019-05-01T02:54:53.633Z,40.97
2019-05-01T02:57:26.067Z,57.57
2019-05-01T02:59:57.266Z,55.80
2019-05-01T03:02:29.103Z,53.53
2019-05-01T03:05:00.512Z,59.30
2019-05-01T03:07:33.811Z,53.23
2019-05-01T03:10:09.197Z,52.47
2019-05-01T03:12:40.508Z,45.93
2019-05-01T03:15:12.733Z,39.10
2019-05-01T03:18:00.139Z,42.80
2019-05-01T03:20:37.423Z,41.97
2019-05-01T03:23:21.419Z,41.10
2019-05-01T03:25:52.140Z,38.67
2019-05-01T03:28:22.985Z,44.33
2019-05-01T03:30:53.607Z,48.97
2019-05-01T03:33:23.961Z,52.43
2019-05-01T03:35:54.702Z,47.90
2019-05-01T03:38:25.828Z,49.27
2019-05-01T03:40:57.035Z,46.83
2019-05-01T03:43:27.863Z,49.60
2019-05-01T03:45:58.169Z,45.00
2019-05-01T03:48:28.876Z,44.00
2019-05-01T03:50:59.204Z,50.20
2019-05-01T03:53:29.940Z,48.00
2019-05-01T03:56:00.662Z,56.83
2019-05-01T03:58:31.606Z,48.13
2019-05-01T04:01:27.036Z,48.40
2019-05-01T04:04:10.660Z,42.77
2019-05-01T04:06:41.004Z,44.30
2019-05-01T04:09:11.310Z,37.30
2019-05-01T04:11:41.752Z,41.03
2019-05-01T04:14:12.071Z,43.33
2019-05-01T04:16:44.738Z,41.83
2019-05-01T04:19:16.155Z,38.57
2019-05-01T04:22:01.643Z,39.67
2019-05-01T04:24:32.353Z,49.70
2019-05-01T04:27:04.627Z,53.90
2019-05-01T04:29:54.040Z,45.93
2019-05-01T04:32:27.678Z,40.77
2019-05-01T04:35:17.364Z,35.20
2019-05-01T04:37:48.108Z,37.30
2019-05-01T04:40:19.239Z,33.07
2019-05-01T04:42:50.026Z,32.43
2019-05-01T04:45:21.906Z,26.87
2019-05-01T04:47:53.065Z,25.50
2019-05-01T04:50:23.576Z,21.63
2019-05-01T04:52:54.020Z,24.67
2019-05-01T04:55:24.730Z,25.30
2019-05-01T04:57:55.161Z,26.97
2019-05-01T05:00:25.510Z,33.63
2019-05-01T05:03:04.960Z,35.20
2019-05-01T05:05:33.684Z,34.20
2019-05-01T05:08:04.533Z,36.33
2019-05-01T05:10:35.174Z,33.13
2019-05-01T05:13:23.617Z,34.03
2019-05-01T05:16:02.435Z,35.70
2019-05-01T05:18:32.793Z,36.73
2019-05-01T05:21:03.119Z,36.10
2019-05-01T05:23:33.571Z,35.30
2019-05-01T05:26:04.684Z,37.27
2019-05-01T05:28:36.219Z,39.53
2019-05-01T05:31:07.696Z,39.73
2019-05-01T05:33:39.912Z,40.80
2019-05-01T05:36:12.133Z,40.37
2019-05-01T05:39:07.888Z,43.60
2019-05-01T05:41:39.021Z,43.13
2019-05-01T05:44:09.458Z,39.70
2019-05-01T05:46:41.086Z,44.93
2019-05-01T05:49:11.417Z,42.17
2019-05-01T05:51:58.588Z,39.73
2019-05-01T05:54:58.830Z,41.30
2019-05-01T05:57:57.164Z,39.37
2019-05-01T06:00:54.196Z,36.13
2019-05-01T06:04:03.934Z,34.00
2019-05-01T06:06:44.531Z,32.10
2019-05-01T06:09:18.046Z,30.73
2019-05-01T06:11:58.943Z,27.13
2019-05-01T06:15:07.648Z,26.10
2019-05-01T06:17:59.049Z,27.10
2019-05-01T06:20:57.143Z,28.03
2019-05-01T06:23:57.476Z,25.23
2019-05-01T06:26:32.157Z,21.80
2019-05-01T06:29:02.098Z,21.10
2019-05-01T06:31:33.419Z,21.63
2019-05-01T06:34:04.125Z,22.37
2019-05-01T06:36:34.745Z,22.30
2019-05-01T06:39:11.886Z,23.17
2019-05-01T06:41:43.979Z,23.37
2019-05-01T06:44:28.392Z,22.27
2019-05-01T06:47:22.800Z,21.77
2019-05-01T06:50:15.588Z,21.17
2019-05-01T06:52:46.007Z,19.83
2019-05-01T06:55:16.354Z,20.13
2019-05-01T06:57:46.875Z,20.03
2019-05-01T07:00:18.332Z,19.57
2019-05-01T07:02:50.890Z,19.03
2019-05-01T07:05:23.362Z,19.60
2019-05-01T07:07:55.987Z,20.07
2019-05-01T07:10:31.781Z,18.50
2019-05-01T07:13:04.917Z,18.80
2019-05-01T07:15:33.834Z,18.43
2019-05-01T07:18:05.028Z,18.10
2019-05-01T07:20:54.626Z,17.97
2019-05-01T07:23:25.143Z,17.17
2019-05-01T07:25:55.562Z,16.87
2019-05-01T07:28:29.045Z,16.83
2019-05-01T07:31:09.024Z,17.00
2019-05-01T07:33:39.746Z,17.10
2019-05-01T07:36:15.280Z,16.93
2019-05-01T07:38:44.980Z,17.23
2019-05-01T07:41:16.993Z,17.87
2019-05-01T07:43:59.610Z,17.23
2019-05-01T07:46:48.960Z,17.10
2019-05-01T07:49:20.966Z,19.90
2019-05-01T07:51:52.647Z,19.17
2019-05-01T07:54:23.818Z,17.53
2019-05-01T07:56:54.186Z,18.10
2019-05-01T07:59:27.443Z,17.70
2019-05-01T08:02:03.509Z,18.77
2019-05-01T08:04:36.401Z,18.97
2019-05-01T08:07:05.888Z,18.57
2019-05-01T08:09:36.245Z,20.37
2019-05-01T08:12:06.599Z,19.43
2019-05-01T08:14:36.924Z,19.17
2019-05-01T08:17:12.890Z,19.77
2019-05-01T08:20:09.951Z,20.23
2019-05-01T08:22:41.235Z,22.00
2019-05-01T08:25:11.562Z,21.17
2019-05-01T08:27:56.252Z,21.27
2019-05-01T08:30:56.441Z,20.60
2019-05-01T08:33:49.836Z,20.93
2019-05-01T08:36:17.834Z,21.67
2019-05-01T08:38:48.203Z,22.47
2019-05-01T08:41:18.650Z,21.43
2019-05-01T08:43:54.109Z,21.83
2019-05-01T08:46:46.761Z,21.10
2019-05-01T08:49:33.969Z,20.20
2019-05-01T08:52:04.713Z,22.47
2019-05-01T08:54:36.531Z,21.80
2019-05-01T08:57:11.671Z,21.27
2019-05-01T08:59:42.072Z,20.83
2019-05-01T09:02:12.438Z,23.27
2019-05-01T09:04:42.743Z,21.57
2019-05-01T09:07:14.603Z,20.87
2019-05-01T09:09:47.001Z,20.97
2019-05-01T09:12:17.127Z,20.90
2019-05-01T09:14:47.483Z,22.47
2019-05-01T09:17:17.843Z,22.23
2019-05-01T09:19:48.175Z,21.43
2019-05-01T09:22:18.573Z,22.33
2019-05-01T09:24:49.396Z,23.00
2019-05-01T09:27:29.410Z,22.30
2019-05-01T09:30:04.411Z,26.73
2019-05-01T09:32:34.475Z,22.27
2019-05-01T09:35:15.353Z,21.63
2019-05-01T09:37:37.412Z,21.97
2019-05-01T09:40:09.093Z,22.60
2019-05-01T09:42:41.070Z,22.53
2019-05-01T09:45:11.587Z,22.00
2019-05-01T09:47:43.050Z,22.47
2019-05-01T09:50:13.991Z,23.07
2019-05-01T09:52:55.169Z,21.67
2019-05-01T09:55:35.980Z,21.80
2019-05-01T09:58:06.436Z,21.80
2019-05-01T10:00:36.760Z,22.13
2019-05-01T10:03:07.694Z,22.47
2019-05-01T10:05:42.625Z,22.17
2019-05-01T10:08:10.189Z,22.00
2019-05-01T10:10:41.017Z,21.48
2019-05-01T10:13:11.379Z,22.00
2019-05-01T10:15:41.720Z,22.77
2019-05-01T10:18:12.816Z,21.97
2019-05-01T10:20:45.246Z,21.10
2019-05-01T10:23:16.701Z,21.30
2019-05-01T10:25:52.134Z,22.30
2019-05-01T10:28:35.963Z,22.27
2019-05-01T10:31:14.279Z,21.60
2019-05-01T10:33:46.522Z,19.63
2019-05-01T10:36:32.582Z,19.73
2019-05-01T10:39:03.660Z,18.60
2019-05-01T10:41:35.054Z,17.67
2019-05-01T10:44:05.733Z,16.20
2019-05-01T10:46:36.061Z,18.73
2019-05-01T10:49:06.435Z,17.23
2019-05-01T10:51:36.783Z,20.97
2019-05-01T10:54:07.155Z,16.10
2019-05-01T10:56:37.499Z,16.97
2019-05-01T10:59:07.856Z,14.53
2019-05-01T11:01:51.061Z,13.83
2019-05-01T11:04:21.524Z,14.17
2019-05-01T11:06:51.851Z,13.70
2019-05-01T11:09:22.211Z,11.80
2019-05-01T11:11:52.532Z,15.13
2019-05-01T11:14:22.931Z,15.20
2019-05-01T11:16:53.255Z,14.83
2019-05-01T11:19:23.618Z,12.80
2019-05-01T11:21:53.943Z,11.87
2019-05-01T11:24:24.389Z,10.57
2019-05-01T11:26:54.699Z,10.10
2019-05-01T11:29:25.073Z,9.63
2019-05-01T11:32:17.329Z,7.97
2019-05-01T11:35:05.571Z,8.87
2019-05-01T11:37:54.835Z,13.22
2019-05-01T11:40:35.046Z,12.85
2019-05-01T11:43:05.431Z,11.00
2019-05-01T11:45:35.777Z,9.75
2019-05-01T11:48:06.079Z,9.60
2019-05-01T11:50:36.662Z,10.05
2019-05-01T11:53:06.980Z,10.48
2019-05-01T11:55:37.349Z,10.13
2019-05-01T11:58:07.658Z,10.70
2019-05-01T12:00:38.018Z,9.05
2019-05-01T12:03:09.029Z,9.80
2019-05-01T12:05:39.375Z,7.67
2019-05-01T12:08:09.719Z,10.23
2019-05-01T12:10:41.061Z,9.28
2019-05-01T12:13:11.400Z,9.18
2019-05-01T12:15:43.395Z,8.93
2019-05-01T12:18:14.695Z,9.45
2019-05-01T12:20:46.123Z,9.63
2019-05-01T12:23:16.467Z,9.70
2019-05-01T12:25:46.823Z,9.40
2019-05-01T12:28:17.302Z,9.23
2019-05-01T12:30:47.995Z,8.98
2019-05-01T12:33:18.374Z,9.28
2019-05-01T12:35:50.567Z,8.30
2019-05-01T12:38:21.744Z,8.30
2019-05-01T12:41:10.142Z,10.30
2019-05-01T12:43:40.944Z,9.18
2019-05-01T12:46:12.887Z,10.48
2019-05-01T12:48:43.207Z,9.53
2019-05-01T12:51:13.580Z,10.23
2019-05-01T12:54:06.444Z,9.65
2019-05-01T12:56:48.830Z,8.68
2019-05-01T12:59:19.164Z,9.25
2019-05-01T13:01:49.520Z,9.37
2019-05-01T13:04:19.987Z,8.70
2019-05-01T13:06:53.095Z,9.05
2019-05-01T13:09:23.442Z,9.08
2019-05-01T13:11:53.795Z,8.83
2019-05-01T13:14:24.131Z,8.05
2019-05-01T13:16:54.522Z,8.57
2019-05-01T13:19:24.837Z,8.60
2019-05-01T13:21:55.222Z,9.10
2019-05-01T13:24:25.542Z,9.00
2019-05-01T13:27:12.351Z,7.70
2019-05-01T13:30:00.703Z,7.92
2019-05-01T13:32:49.996Z,9.10
2019-05-01T13:35:20.396Z,10.15
2019-05-01T13:37:50.754Z,7.97
2019-05-01T13:40:21.077Z,8.55
2019-05-01T13:42:51.454Z,10.23
2019-05-01T13:45:22.490Z,8.78
2019-05-01T13:47:54.417Z,8.73
2019-05-01T13:50:24.980Z,9.03
2019-05-01T13:52:55.326Z,8.20
2019-05-01T13:55:25.681Z,7.45
2019-05-01T13:57:56.021Z,7.90
2019-05-01T14:00:27.067Z,8.58
2019-05-01T14:02:57.435Z,8.10
2019-05-01T14:05:27.753Z,7.80
2019-05-01T14:07:58.168Z,8.33
2019-05-01T14:10:28.661Z,8.73
2019-05-01T14:12:59.094Z,9.38
2019-05-01T14:15:29.476Z,8.50
2019-05-01T14:17:59.852Z,9.00
2019-05-01T14:20:51.843Z,7.62
2019-05-01T14:23:39.274Z,8.85
2019-05-01T14:26:09.627Z,9.60
2019-05-01T14:28:40.910Z,7.53
2019-05-01T14:31:11.273Z,8.05
2019-05-01T14:33:41.748Z,8.73
2019-05-01T14:36:12.179Z,8.85
2019-05-01T14:38:42.556Z,8.38
2019-05-01T14:41:12.924Z,9.85
2019-05-01T14:43:43.343Z,9.53
2019-05-01T14:46:13.663Z,8.78
2019-05-01T14:48:44.013Z,9.10
2019-05-01T14:51:16.145Z,8.90
2019-05-01T14:53:47.011Z,9.50
2019-05-01T14:56:17.356Z,10.55
2019-05-01T14:58:48.631Z,9.57
2019-05-01T15:01:19.006Z,8.75
2019-05-01T15:03:49.360Z,9.40
2019-05-01T15:06:19.711Z,10.95
2019-05-01T15:08:50.063Z,8.78
2019-05-01T15:11:20.357Z,9.15
2019-05-01T15:13:59.850Z,10.07
2019-05-01T15:16:40.227Z,7.45
2019-05-01T15:19:15.565Z,8.38
2019-05-01T15:21:46.248Z,10.88
2019-05-01T15:24:16.610Z,8.70
2019-05-01T15:26:47.177Z,9.10
2019-05-01T15:29:17.854Z,9.93
2019-05-01T15:31:48.521Z,13.63
2019-05-01T15:34:18.880Z,9.40
2019-05-01T15:36:49.196Z,9.38
2019-05-01T15:39:30.950Z,10.63
2019-05-01T15:42:23.230Z,7.60
2019-05-01T15:44:53.659Z,8.88
2019-05-01T15:47:24.027Z,9.78
2019-05-01T15:49:54.681Z,8.13
2019-05-01T15:52:25.033Z,9.85
2019-05-01T15:54:55.472Z,9.90
2019-05-01T15:57:25.809Z,9.85
2019-05-01T15:59:56.166Z,8.90
2019-05-01T16:02:26.501Z,10.55
2019-05-01T16:04:57.990Z,10.28
2019-05-01T16:07:28.423Z,8.40
2019-05-01T16:09:58.768Z,9.13
2019-05-01T16:12:40.109Z,8.00
2019-05-01T16:15:17.231Z,7.92
2019-05-01T16:17:47.565Z,8.60
2019-05-01T16:20:17.914Z,8.55
2019-05-01T16:22:48.231Z,11.37
2019-05-01T16:25:18.618Z,11.45
2019-05-01T16:27:48.964Z,10.18
2019-05-01T16:30:23.398Z,9.40
2019-05-01T16:32:53.771Z,9.05
2019-05-01T16:35:24.084Z,9.60
2019-05-01T16:37:56.399Z,10.07
2019-05-01T16:40:46.656Z,8.93
2019-05-01T16:43:16.971Z,9.13
2019-05-01T16:45:47.323Z,11.00
2019-05-01T16:48:17.650Z,8.03
2019-05-01T16:50:47.998Z,8.60
2019-05-01T16:53:18.599Z,8.78
2019-05-01T16:55:48.956Z,8.50
2019-05-01T16:58:19.477Z,7.85
2019-05-01T17:01:13.989Z,11.78
2019-05-01T17:04:01.823Z,9.90
2019-05-01T17:06:39.956Z,8.33
2019-05-01T17:09:29.146Z,10.10
2019-05-01T17:11:59.466Z,7.87
2019-05-01T17:14:30.625Z,8.18
2019-05-01T17:17:01.043Z,8.30
2019-05-01T17:19:32.076Z,7.30
2019-05-01T17:22:02.390Z,9.00
2019-05-01T17:24:32.824Z,8.75
2019-05-01T17:27:03.151Z,8.60
2019-05-01T17:29:34.603Z,8.28
2019-05-01T17:32:05.329Z,9.00
2019-05-01T17:34:35.800Z,9.03
2019-05-01T17:37:06.120Z,8.65
2019-05-01T17:39:37.422Z,9.03
2019-05-01T17:42:09.385Z,12.40
2019-05-01T17:44:39.740Z,12.20
2019-05-01T17:47:10.093Z,9.50
2019-05-01T17:49:44.851Z,11.95
2019-05-01T17:52:13.844Z,11.03
2019-05-01T17:54:44.196Z,9.03
2019-05-01T17:57:14.546Z,9.47
2019-05-01T17:59:47.465Z,10.70
2019-05-01T18:02:42.528Z,11.27
2019-05-01T18:05:30.651Z,10.07
2019-05-01T18:08:01.459Z,11.30
2019-05-01T18:10:34.103Z,9.90
2019-05-01T18:13:03.988Z,10.77
2019-05-01T18:15:34.364Z,10.40
2019-05-01T18:18:04.708Z,11.03
2019-05-01T18:20:36.432Z,11.70
2019-05-01T18:23:17.274Z,13.77
2019-05-01T18:26:04.833Z,15.27
2019-05-01T18:28:39.330Z,12.30
2019-05-01T18:31:14.753Z,13.53
2019-05-01T18:33:45.139Z,11.47
2019-05-01T18:36:19.857Z,12.00
2019-05-01T18:38:56.548Z,16.10
2019-05-01T18:41:41.348Z,13.93
2019-05-01T18:44:14.102Z,15.60
2019-05-01T18:46:44.609Z,16.23
2019-05-01T18:49:15.455Z,16.17
2019-05-01T18:51:45.907Z,17.20
2019-05-01T18:54:16.690Z,14.20
2019-05-01T18:56:47.070Z,15.50
2019-05-01T18:59:17.662Z,16.37
2019-05-01T19:01:49.716Z,17.40
2019-05-01T19:04:23.513Z,16.43
2019-05-01T19:06:52.841Z,14.90
2019-05-01T19:09:30.064Z,14.00
2019-05-01T19:11:55.971Z,13.73
2019-05-01T19:14:28.788Z,15.57
2019-05-01T19:16:58.913Z,14.93
2019-05-01T19:19:30.920Z,13.37
2019-05-01T19:22:02.444Z,13.00
2019-05-01T19:24:38.116Z,15.00
2019-05-01T19:27:07.231Z,15.53
2019-05-01T19:29:38.940Z,18.27
2019-05-01T19:32:09.553Z,13.13
2019-05-01T19:34:41.949Z,13.80
2019-05-01T19:37:16.518Z,15.63
2019-05-01T19:39:49.110Z,14.07
2019-05-01T19:42:21.617Z,13.70
2019-05-01T19:44:51.070Z,15.07
2019-05-01T19:47:22.107Z,14.23
2019-05-01T19:49:54.555Z,13.83
2019-05-01T19:52:24.459Z,14.50
2019-05-01T19:54:54.956Z,12.87
2019-05-01T19:57:25.476Z,12.67
2019-05-01T19:59:55.994Z,10.70
2019-05-01T20:02:26.524Z,11.27
2019-05-01T20:04:57.138Z,11.60
2019-05-01T20:07:28.713Z,10.53
2019-05-01T20:09:59.138Z,11.70
2019-05-01T20:12:29.929Z,12.33
2019-05-01T20:15:00.547Z,12.87
2019-05-01T20:17:31.112Z,12.67
2019-05-01T20:20:01.945Z,10.60
2019-05-01T20:22:32.668Z,12.73
2019-05-01T20:25:03.194Z,13.73
2019-05-01T20:27:34.009Z,12.80
2019-05-01T20:30:06.071Z,15.13
2019-05-01T20:32:36.869Z,15.40
2019-05-01T20:35:07.462Z,15.00
2019-05-01T20:37:38.107Z,16.50
2019-05-01T20:40:11.376Z,14.03
2019-05-01T20:42:41.448Z,15.57
2019-05-01T20:45:17.665Z,15.43
2019-05-01T20:47:46.262Z,16.33
2019-05-01T20:50:17.382Z,17.83
2019-05-01T20:52:49.562Z,16.90
2019-05-01T20:55:20.390Z,16.53
2019-05-01T20:57:51.319Z,17.37
2019-05-01T21:00:23.450Z,15.00
2019-05-01T21:02:53.830Z,15.20
2019-05-01T21:05:29.861Z,15.17
2019-05-01T21:08:13.116Z,14.77
2019-05-01T21:10:51.207Z,18.80
2019-05-01T21:13:23.119Z,16.97
2019-05-01T21:15:56.427Z,13.87
2019-05-01T21:18:27.623Z,14.00
2019-05-01T21:20:57.758Z,13.87
2019-05-01T21:23:28.087Z,15.10
2019-05-01T21:25:58.448Z,13.90
2019-05-01T21:28:28.844Z,14.67
2019-05-01T21:30:59.255Z,15.20
2019-05-01T21:33:29.623Z,16.57
2019-05-01T21:36:04.902Z,13.67
2019-05-01T21:38:32.269Z,14.40
2019-05-01T21:41:02.983Z,14.60
2019-05-01T21:43:37.061Z,15.37
2019-05-01T21:46:06.752Z,14.23
2019-05-01T21:48:37.045Z,13.83
2019-05-01T21:51:07.767Z,14.20
2019-05-01T21:53:42.724Z,14.80
2019-05-01T21:56:10.602Z,14.43
2019-05-01T21:58:41.081Z,18.10
2019-05-01T22:01:11.535Z,16.83
2019-05-01T22:03:42.129Z,20.60
2019-05-01T22:06:15.288Z,18.40
2019-05-01T22:08:44.430Z,17.37
2019-05-01T22:11:14.789Z,20.33
2019-05-01T22:13:45.103Z,16.00
2019-05-01T22:16:22.405Z,19.97
2019-05-01T22:19:16.388Z,20.43
2019-05-01T22:22:21.083Z,20.73
2019-05-01T22:25:02.145Z,18.97
2019-05-01T22:27:39.257Z,18.70
2019-05-01T22:30:24.091Z,20.15
2019-05-01T22:32:54.846Z,17.50
2019-05-01T22:35:27.028Z,19.63
2019-05-01T22:37:57.628Z,19.00
2019-05-01T22:41:06.758Z,18.80
2019-05-01T22:43:36.936Z,17.97
2019-05-01T22:46:11.888Z,16.37
2019-05-01T22:48:42.429Z,18.23
2019-05-01T22:51:24.496Z,18.53
2019-05-01T22:53:56.289Z,19.10
2019-05-01T22:56:28.036Z,17.27
2019-05-01T22:59:00.142Z,18.90
2019-05-01T23:01:32.581Z,21.43
2019-05-01T23:04:06.652Z,18.10
2019-05-01T23:06:41.861Z,18.77
2019-05-01T23:09:15.728Z,19.17
2019-05-01T23:11:48.456Z,21.50
2019-05-01T23:14:22.068Z,19.27
2019-05-01T23:17:05.192Z,21.73
2019-05-01T23:19:35.696Z,19.60
2019-05-01T23:22:09.734Z,19.73
2019-05-01T23:24:40.918Z,19.00
2019-05-01T23:27:11.493Z,18.70
2019-05-01T23:29:41.951Z,20.30
2019-05-01T23:32:12.372Z,18.90
2019-05-01T23:34:43.117Z,22.10
2019-05-01T23:37:13.464Z,21.47
2019-05-01T23:39:43.924Z,19.90
2019-05-01T23:42:14.777Z,21.00
2019-05-01T23:44:45.251Z,21.07
2019-05-01T23:47:16.465Z,23.57
2019-05-01T23:49:47.691Z,21.27
2019-05-01T23:52:19.364Z,21.00
2019-05-01T23:54:49.795Z,19.87
2019-05-01T23:57:20.380Z,23.00
2019-05-01T23:59:50.939Z,20.10
